Time;durP1;ratioP1;P1;durP2;ratioP2;P2;SDS_P1;SDS_P2;PMS_P1;PMS_P2;Temp;Humidity;BMP_temperature;BMP_pressure;BME280_temperature;BME280_humidity;BME280_pressure;Samples;Min_cycle;Max_cycle;Signal;HPM_P1;HPM_P2
2022/07/10 00:02:07;;;;;;;;;;;;;;;;;;4942276;28;19931;-63
2022/07/10 00:04:32;;;;;;;;;;;;;;;;;;4939313;28;20398;-64
2022/07/10 00:06:58;;;;;;;;;;;;;;;;;;4942310;28;22055;-65
2022/07/10 00:09:23;;;;;;;;;;;;;;;;;;4925570;28;20049;-63
2022/07/10 00:11:48;;;;;;;;;;;;;;;;;;4925253;28;19934;-64
2022/07/10 00:14:14;;;;;;;;;;;;;;;;;;4927500;28;19922;-64
2022/07/10 00:16:39;;;;;;;;;;;;;;;;;;4927568;28;19918;-65
2022/07/10 00:19:06;;;;;;;;;;;;;;;;;;4926445;28;20327;-65
2022/07/10 00:21:31;;;;;;;;;;;;;;;;;;4927955;28;20005;-66
2022/07/10 00:23:56;;;;;;;;;;;;;;;;;;4941300;28;19927;-66
2022/07/10 00:26:22;;;;;;;;;;;;;;;;;;4942051;28;20655;-67
2022/07/10 00:28:47;;;;;;;;;;;;;;;;;;4925219;28;20038;-65
2022/07/10 00:31:13;;;;;;;;;;;;;;;;;;4943537;28;19933;-66
2022/07/10 00:33:38;;;;;;;;;;;;;;;;;;4927397;28;19929;-65
2022/07/10 00:36:04;;;;;;;;;;;;;;;;;;4941247;28;19941;-65
2022/07/10 00:38:30;;;;;;;;;;;;;;;;;;4927228;28;19930;-66
2022/07/10 00:40:56;;;;;;;;;;;;;;;;;;4939792;28;19927;-66
2022/07/10 00:43:21;;;;;;;;;;;;;;;;;;4943582;28;19970;-66
2022/07/10 00:45:46;;;;;;;;;;;;;;;;;;4945928;28;19919;-66
2022/07/10 00:48:14;;;;;;;;;;;;;;;;;;4942237;28;19930;-66
2022/07/10 00:50:41;;;;;;;;;;;;;;;;;;4930098;28;19961;-66
2022/07/10 00:53:07;;;;;;;;;;;;;;;;;;4943823;28;20050;-64
2022/07/10 00:55:35;;;;;;;;;;;;;;;;;;4945833;28;20019;-66
2022/07/10 00:58:00;;;;;;;;;;;;;;;;;;4926476;28;19980;-65
2022/07/10 01:00:26;;;;;;;;;;;;;;;;;;4930503;28;19926;-66
2022/07/10 01:02:51;;;;;;;;;;;;;;;;;;4928249;28;20390;-66
2022/07/10 01:05:17;;;;;;;;;;;;;;;;;;4928344;28;19922;-66
2022/07/10 01:07:42;;;;;;;;;;;;;;;;;;4945222;28;19930;-66
2022/07/10 01:10:08;;;;;;;;;;;;;;;;;;4927776;28;19918;-65
2022/07/10 01:12:33;;;;;;;;;;;;;;;;;;4929369;28;19922;-66
2022/07/10 01:15:01;;;;;;;;;;;;;;;;;;4930605;28;19934;-65
2022/07/10 01:17:28;;;;;;;;;;;;;;;;;;4927636;29;19925;-66
2022/07/10 01:19:54;;;;;;;;;;;;;;;;;;4944386;28;19918;-62
2022/07/10 01:22:34;;;;;;;;;;;;;;;;;;4930906;28;20465;-65
2022/07/10 01:25:02;;;;;;;;;;;;;;;;;;4930597;28;19985;-65
2022/07/10 01:27:27;;;;;;;;;;;;;;;;;;4943479;28;19927;-62
2022/07/10 01:29:53;;;;;;;;;;;;;;;;;;4928490;28;19993;-65
2022/07/10 01:32:18;;;;;;;;;;;;;;;;;;4944473;28;20029;-65
2022/07/10 01:34:45;;;;;;;;;;;;;;;;;;4943213;28;20294;-64
2022/07/10 01:37:10;;;;;;;;;;;;;;;;;;4924444;28;19927;-65
2022/07/10 01:39:36;;;;;;;;;;;;;;;;;;4928243;28;19933;-67
2022/07/10 01:42:01;;;;;;;;;;;;;;;;;;4941515;28;19930;-65
2022/07/10 01:44:27;;;;;;;;;;;;;;;;;;4941264;28;19922;-65
2022/07/10 01:46:52;;;;;;;;;;;;;;;;;;4943398;28;19926;-65
2022/07/10 01:49:18;;;;;;;;;;;;;;;;;;4941015;28;19961;-66
2022/07/10 01:51:44;;;;;;;;;;;;;;;;;;4926723;28;19958;-65
2022/07/10 01:54:10;;;;;;;;;;;;;;;;;;4926392;28;19926;-64
2022/07/10 01:56:36;;;;;;;;;;;;;;;;;;4928344;28;19929;-65
2022/07/10 01:59:03;;;;;;;;;;;;;;;;;;4926596;28;19919;-65
2022/07/10 02:01:31;;;;;;;;;;;;;;;;;;4926824;28;19953;-65
2022/07/10 02:06:43;;;;;;;;;;;;;;;;;;4943778;28;19929;-65
2022/07/10 02:09:11;;;;;;;;;;;;;;;;;;4941527;28;19925;-66
2022/07/10 02:11:36;;;;;;;;;;;;;;;;;;4943776;28;19923;-64
2022/07/10 02:14:02;;;;;;;;;;;;;;;;;;4941952;28;20030;-65
2022/07/10 02:16:27;;;;;;;;;;;;;;;;;;4928722;28;20417;-65
2022/07/10 02:18:53;;;;;;;;;;;;;;;;;;4926175;28;19950;-63
2022/07/10 02:21:23;;;;;;;;;;;;;;;;;;4943080;28;19927;-66
2022/07/10 02:23:49;;;;;;;;;;;;;;;;;;4927494;28;19922;-66
2022/07/10 02:26:14;;;;;;;;;;;;;;;;;;4943980;28;19922;-67
2022/07/10 02:28:42;;;;;;;;;;;;;;;;;;4923091;28;19926;-65
2022/07/10 02:31:10;;;;;;;;;;;;;;;;;;4927843;28;19929;-67
2022/07/10 02:33:38;;;;;;;;;;;;;;;;;;4942579;28;19918;-66
2022/07/10 02:36:04;;;;;;;;;;;;;;;;;;4929366;28;19922;-65
2022/07/10 02:38:29;;;;;;;;;;;;;;;;;;4941599;28;20713;-66
2022/07/10 02:40:59;;;;;;;;;;;;;;;;;;4926343;28;20302;-67
2022/07/10 02:43:25;;;;;;;;;;;;;;;;;;4938940;28;19930;-65
2022/07/10 02:45:50;;;;;;;;;;;;;;;;;;4928384;28;19989;-65
2022/07/10 02:48:17;;;;;;;;;;;;;;;;;;4926202;28;19922;-65
2022/07/10 02:50:43;;;;;;;;;;;;;;;;;;4941918;28;20848;-65
2022/07/10 02:53:09;;;;;;;;;;;;;;;;;;4928693;28;20005;-63
2022/07/10 02:55:36;;;;;;;;;;;;;;;;;;4923906;28;20215;-65
2022/07/10 02:58:03;;;;;;;;;;;;;;;;;;4926456;28;20407;-65
2022/07/10 03:00:28;;;;;;;;;;;;;;;;;;4942494;28;19931;-65
2022/07/10 03:02:54;;;;;;;;;;;;;;;;;;4942190;28;20469;-64
2022/07/10 03:05:20;;;;;;;;;;;;;;;;;;4929569;28;19945;-65
2022/07/10 03:07:48;;;;;;;;;;;;;;;;;;4926172;28;20276;-66
2022/07/10 03:10:13;;;;;;;;;;;;;;;;;;4940752;28;19940;-67
2022/07/10 03:12:38;;;;;;;;;;;;;;;;;;4926461;28;20837;-65
2022/07/10 03:15:04;;;;;;;;;;;;;;;;;;4927714;28;20550;-63
2022/07/10 03:17:29;;;;;;;;;;;;;;;;;;4923602;28;19930;-64
2022/07/10 03:19:55;;;;;;;;;;;;;;;;;;4924343;28;19965;-64
2022/07/10 03:22:23;;;;;;;;;;;;;;;;;;4942810;28;19934;-65
2022/07/10 03:24:48;;;;;;;;;;;;;;;;;;4924516;28;19961;-64
2022/07/10 03:27:14;;;;;;;;;;;;;;;;;;4925204;28;19957;-64
2022/07/10 03:29:42;;;;;;;;;;;;;;;;;;4924696;28;19918;-65
2022/07/10 03:32:07;;;;;;;;;;;;;;;;;;4941743;28;19918;-66
2022/07/10 03:34:33;;;;;;;;;;;;;;;;;;4928089;28;20462;-66
2022/07/10 03:37:01;;;;;;;;;;;;;;;;;;4940677;28;20016;-65
2022/07/10 03:39:27;;;;;;;;;;;;;;;;;;4929282;28;19928;-64
2022/07/10 03:41:52;;;;;;;;;;;;;;;;;;4941782;28;20396;-67
2022/07/10 03:44:17;;;;;;;;;;;;;;;;;;4924556;28;20909;-66
2022/07/10 03:46:45;;;;;;;;;;;;;;;;;;4941953;28;20354;-65
2022/07/10 03:49:11;;;;;;;;;;;;;;;;;;4927973;28;19918;-66
2022/07/10 03:51:36;;;;;;;;;;;;;;;;;;4926546;28;19922;-65
2022/07/10 03:54:02;;;;;;;;;;;;;;;;;;4925671;28;19920;-65
2022/07/10 03:59:12;;;;;;;;;;;;;;;;;;4926687;28;20037;-65
2022/07/10 04:01:37;;;;;;;;;;;;;;;;;;4923546;28;20931;-64
2022/07/10 04:04:03;;;;;;;;;;;;;;;;;;4927288;28;19930;-65
2022/07/10 04:06:31;;;;;;;;;;;;;;;;;;4927701;28;20387;-63
2022/07/10 04:08:56;;;;;;;;;;;;;;;;;;4924728;29;19918;-64
2022/07/10 04:11:22;;;;;;;;;;;;;;;;;;4924308;28;19922;-64
2022/07/10 04:13:50;;;;;;;;;;;;;;;;;;4941675;28;19952;-63
2022/07/10 04:16:15;;;;;;;;;;;;;;;;;;4941482;28;19980;-66
2022/07/10 04:18:41;;;;;;;;;;;;;;;;;;4927295;28;19918;-64
2022/07/10 04:21:06;;;;;;;;;;;;;;;;;;4945845;28;21941;-66
2022/07/10 04:23:32;;;;;;;;;;;;;;;;;;4929089;28;19918;-65
2022/07/10 04:25:57;;;;;;;;;;;;;;;;;;4946328;28;19934;-66
2022/07/10 04:28:36;;;;;;;;;;;;;;;;;;4925682;28;20111;-64
2022/07/10 04:31:02;;;;;;;;;;;;;;;;;;4931496;28;20035;-67
2022/07/10 04:33:27;;;;;;;;;;;;;;;;;;4928826;28;20658;-65
2022/07/10 04:35:53;;;;;;;;;;;;;;;;;;4946620;28;19918;-66
2022/07/10 04:38:19;;;;;;;;;;;;;;;;;;4931394;28;20053;-66
2022/07/10 04:40:44;;;;;;;;;;;;;;;;;;4931765;28;19926;-64
2022/07/10 04:46:28;;;;;;;;;;;;;;;;;;4928571;28;20105;-66
2022/07/10 04:48:54;;;;;;;;;;;;;;;;;;4929410;28;19922;-64
2022/07/10 04:51:23;;;;;;;;;;;;;;;;;;4930547;28;20644;-64
2022/07/10 04:53:48;;;;;;;;;;;;;;;;;;4928680;29;19919;-64
2022/07/10 04:56:19;;;;;;;;;;;;;;;;;;4945052;28;19964;-68
2022/07/10 04:58:45;;;;;;;;;;;;;;;;;;4944520;28;19922;-65
2022/07/10 05:01:10;;;;;;;;;;;;;;;;;;4932981;28;19988;-67
2022/07/10 05:03:36;;;;;;;;;;;;;;;;;;4928989;28;20564;-65
2022/07/10 05:06:02;;;;;;;;;;;;;;;;;;4932494;28;20065;-67
2022/07/10 05:08:30;;;;;;;;;;;;;;;;;;4926372;28;20054;-64
2022/07/10 05:10:55;;;;;;;;;;;;;;;;;;4912614;29;20563;-68
2022/07/10 05:13:22;;;;;;;;;;;;;;;;;;4931286;28;19918;-66
2022/07/10 05:15:49;;;;;;;;;;;;;;;;;;4930648;28;19946;-66
2022/07/10 05:18:15;;;;;;;;;;;;;;;;;;4945558;28;19923;-65
2022/07/10 05:20:44;;;;;;;;;;;;;;;;;;4931902;28;20354;-69
2022/07/10 05:23:10;;;;;;;;;;;;;;;;;;4929372;28;19926;-66
2022/07/10 05:25:37;;;;;;;;;;;;;;;;;;4945969;28;19981;-66
2022/07/10 05:28:02;;;;;;;;;;;;;;;;;;4926240;28;20322;-67
2022/07/10 05:30:27;;;;;;;;;;;;;;;;;;4931392;28;19923;-66
2022/07/10 05:32:53;;;;;;;;;;;;;;;;;;4943712;28;19966;-65
2022/07/10 05:35:21;;;;;;;;;;;;;;;;;;4930487;28;19918;-65
2022/07/10 05:37:46;;;;;;;;;;;;;;;;;;4927270;28;19923;-66
2022/07/10 05:40:12;;;;;;;;;;;;;;;;;;4929277;28;19922;-68
2022/07/10 05:42:38;;;;;;;;;;;;;;;;;;4930477;28;20279;-66
2022/07/10 05:45:04;;;;;;;;;;;;;;;;;;4943708;28;19926;-66
2022/07/10 05:47:29;;;;;;;;;;;;;;;;;;4929115;28;19922;-67
2022/07/10 05:49:57;;;;;;;;;;;;;;;;;;4928280;28;19918;-66
2022/07/10 05:52:23;;;;;;;;;;;;;;;;;;4929407;28;20606;-67
2022/07/10 05:54:50;;;;;;;;;;;;;;;;;;4945086;28;20013;-66
2022/07/10 05:57:16;;;;;;;;;;;;;;;;;;4945145;28;19918;-64
2022/07/10 05:59:46;;;;;;;;;;;;;;;;;;4925617;28;19927;-66
2022/07/10 06:02:11;;;;;;;;;;;;;;;;;;4926538;28;19962;-67
2022/07/10 06:04:39;;;;;;;;;;;;;;;;;;4928648;28;19954;-65
2022/07/10 06:07:05;;;;;;;;;;;;;;;;;;4945186;28;19929;-66
2022/07/10 06:09:30;;;;;;;;;;;;;;;;;;4928153;28;19918;-65
2022/07/10 06:11:55;;;;;;;;;;;;;;;;;;4926870;28;19923;-62
2022/07/10 06:14:20;;;;;;;;;;;;;;;;;;4925248;28;20400;-66
2022/07/10 06:16:46;;;;;;;;;;;;;;;;;;4942934;28;20658;-66
2022/07/10 06:19:12;;;;;;;;;;;;;;;;;;4928112;28;19918;-66
2022/07/10 06:21:37;;;;;;;;;;;;;;;;;;4927673;28;19926;-68
2022/07/10 06:24:02;;;;;;;;;;;;;;;;;;4928642;28;19918;-66
2022/07/10 06:26:33;;;;;;;;;;;;;;;;;;4929757;28;19969;-64
2022/07/10 06:28:58;;;;;;;;;;;;;;;;;;4943628;28;19918;-64
2022/07/10 06:31:26;;;;;;;;;;;;;;;;;;4942123;28;19929;-65
2022/07/10 06:33:52;;;;;;;;;;;;;;;;;;4942576;28;19982;-65
2022/07/10 06:36:19;;;;;;;;;;;;;;;;;;4944030;28;20567;-66
2022/07/10 06:38:48;;;;;;;;;;;;;;;;;;4942799;28;20004;-67
2022/07/10 06:41:13;;;;;;;;;;;;;;;;;;4942119;28;20003;-67
2022/07/10 06:43:41;;;;;;;;;;;;;;;;;;4928483;28;19922;-68
2022/07/10 06:46:06;;;;;;;;;;;;;;;;;;4929935;28;19922;-66
2022/07/10 06:48:32;;;;;;;;;;;;;;;;;;4927072;28;21063;-68
2022/07/10 06:50:57;;;;;;;;;;;;;;;;;;4942864;28;19929;-65
2022/07/10 06:53:26;;;;;;;;;;;;;;;;;;4942469;28;19981;-67
2022/07/10 06:55:52;;;;;;;;;;;;;;;;;;4924032;28;20013;-66
2022/07/10 06:58:17;;;;;;;;;;;;;;;;;;4927779;28;20012;-69
2022/07/10 07:00:42;;;;;;;;;;;;;;;;;;4929506;28;20016;-67
2022/07/10 07:03:08;;;;;;;;;;;;;;;;;;4927310;28;19930;-66
2022/07/10 07:05:33;;;;;;;;;;;;;;;;;;4943959;28;20023;-64
2022/07/10 07:08:01;;;;;;;;;;;;;;;;;;4943586;28;20338;-65
2022/07/10 07:10:29;;;;;;;;;;;;;;;;;;4927775;28;20676;-67
2022/07/10 07:12:57;;;;;;;;;;;;;;;;;;4942555;28;19993;-67
2022/07/10 07:15:24;;;;;;;;;;;;;;;;;;4929073;28;19923;-70
2022/07/10 07:17:56;;;;;;;;;;;;;;;;;;4941377;28;20025;-62
2022/07/10 07:23:14;;;;;;;;;;;;;;;;;;4941968;28;19923;-66
2022/07/10 07:25:46;;;;;;;;;;;;;;;;;;4928443;28;20013;-64
2022/07/10 07:28:22;;;;;;;;;;;;;;;;;;4927821;28;22053;-66
2022/07/10 07:30:47;;;;;;;;;;;;;;;;;;4928711;28;20547;-67
2022/07/10 07:33:15;;;;;;;;;;;;;;;;;;4925371;28;20378;-66
2022/07/10 07:35:41;;;;;;;;;;;;;;;;;;4943108;28;19922;-66
2022/07/10 07:38:07;;;;;;;;;;;;;;;;;;4925414;28;20445;-64
2022/07/10 07:40:32;;;;;;;;;;;;;;;;;;4943079;28;20005;-64
2022/07/10 07:46:14;;;;;;;;;;;;;;;;;;4927977;28;19929;-68
2022/07/10 07:48:40;;;;;;;;;;;;;;;;;;4940214;28;19922;-65
2022/07/10 07:51:06;;;;;;;;;;;;;;;;;;4929076;28;20260;-65
2022/07/10 07:53:31;;;;;;;;;;;;;;;;;;4945285;28;19929;-65
2022/07/10 07:55:56;;;;;;;;;;;;;;;;;;4932609;28;19923;-65
2022/07/10 07:58:21;;;;;;;;;;;;;;;;;;4928226;28;19997;-65
2022/07/10 08:00:47;;;;;;;;;;;;;;;;;;4929855;28;19938;-65
2022/07/10 08:03:13;;;;;;;;;;;;;;;;;;4928047;28;19922;-63
2022/07/10 08:05:39;;;;;;;;;;;;;;;;;;4931209;28;19923;-65
2022/07/10 08:08:08;;;;;;;;;;;;;;;;;;4931485;28;20010;-72
2022/07/10 08:10:33;;;;;;;;;;;;;;;;;;4927397;28;19965;-63
2022/07/10 08:12:59;;;;;;;;;;;;;;;;;;4945593;28;20025;-66
2022/07/10 08:15:27;;;;;;;;;;;;;;;;;;4931722;28;19923;-67
2022/07/10 08:17:58;;;;;;;;;;;;;;;;;;4944817;28;20585;-65
2022/07/10 08:20:23;;;;;;;;;;;;;;;;;;4945628;28;19925;-65
2022/07/10 08:22:48;;;;;;;;;;;;;;;;;;4928256;28;19922;-62
2022/07/10 08:25:13;;;;;;;;;;;;;;;;;;4946147;28;20525;-65
2022/07/10 08:27:39;;;;;;;;;;;;;;;;;;4944016;28;19929;-65
2022/07/10 08:30:08;;;;;;;;;;;;;;;;;;4931436;28;20360;-64
2022/07/10 08:32:36;;;;;;;;;;;;;;;;;;4945204;28;19922;-67
2022/07/10 08:35:01;;;;;;;;;;;;;;;;;;4927968;28;19918;-62
2022/07/10 08:37:27;;;;;;;;;;;;;;;;;;4945645;28;19926;-66
2022/07/10 08:39:53;;;;;;;;;;;;;;;;;;4930246;28;19918;-66
2022/07/10 08:42:22;;;;;;;;;;;;;;;;;;4943437;28;19966;-66
2022/07/10 08:44:47;;;;;;;;;;;;;;;;;;4928824;28;19930;-72
2022/07/10 08:47:16;;;;;;;;;;;;;;;;;;4931517;28;19947;-63
2022/07/10 08:49:42;;;;;;;;;;;;;;;;;;4927327;28;20450;-66
2022/07/10 08:52:07;;;;;;;;;;;;;;;;;;4947129;28;19923;-65
2022/07/10 08:54:32;;;;;;;;;;;;;;;;;;4930961;28;19929;-67
2022/07/10 08:56:58;;;;;;;;;;;;;;;;;;4927118;28;19929;-63
2022/07/10 08:59:23;;;;;;;;;;;;;;;;;;4946760;28;19918;-71
2022/07/10 09:01:53;;;;;;;;;;;;;;;;;;4930145;28;19922;-66
2022/07/10 09:04:18;;;;;;;;;;;;;;;;;;4944145;28;19922;-68
2022/07/10 09:06:44;;;;;;;;;;;;;;;;;;4931073;28;20025;-67
2022/07/10 09:09:12;;;;;;;;;;;;;;;;;;4944737;28;20070;-70
2022/07/10 09:11:38;;;;;;;;;;;;;;;;;;4930915;28;19918;-66
2022/07/10 09:14:04;;;;;;;;;;;;;;;;;;4927580;28;19922;-68
2022/07/10 09:16:29;;;;;;;;;;;;;;;;;;4930310;28;20469;-67
2022/07/10 09:18:55;;;;;;;;;;;;;;;;;;4927153;28;19918;-66
2022/07/10 09:21:20;;;;;;;;;;;;;;;;;;4944272;28;19934;-73
2022/07/10 09:23:48;;;;;;;;;;;;;;;;;;4931800;28;20427;-69
2022/07/10 09:26:13;;;;;;;;;;;;;;;;;;4927976;28;19926;-70
2022/07/10 09:28:39;;;;;;;;;;;;;;;;;;4930375;28;19927;-67
2022/07/10 09:31:07;;;;;;;;;;;;;;;;;;4930674;28;19918;-68
2022/07/10 09:33:34;;;;;;;;;;;;;;;;;;4927225;28;20052;-65
2022/07/10 09:36:05;;;;;;;;;;;;;;;;;;4930396;28;19918;-67
2022/07/10 09:38:31;;;;;;;;;;;;;;;;;;4942490;28;19918;-65
2022/07/10 09:40:56;;;;;;;;;;;;;;;;;;4928005;28;19989;-66
2022/07/10 09:43:21;;;;;;;;;;;;;;;;;;4929120;28;20800;-66
2022/07/10 09:45:47;;;;;;;;;;;;;;;;;;4944051;28;19918;-65
2022/07/10 09:48:17;;;;;;;;;;;;;;;;;;4930214;28;19918;-68
2022/07/10 09:50:42;;;;;;;;;;;;;;;;;;4928157;28;19929;-64
2022/07/10 09:53:12;;;;;;;;;;;;;;;;;;4928573;28;19918;-61
2022/07/10 09:55:37;;;;;;;;;;;;;;;;;;4928908;28;19929;-60
2022/07/10 09:58:05;;;;;;;;;;;;;;;;;;4942883;28;19923;-60
2022/07/10 10:00:30;;;;;;;;;;;;;;;;;;4929023;28;19973;-59
2022/07/10 10:02:56;;;;;;;;;;;;;;;;;;4925426;28;20378;-60
2022/07/10 10:05:25;;;;;;;;;;;;;;;;;;4930171;28;19919;-59
2022/07/10 10:07:55;;;;;;;;;;;;;;;;;;4930780;28;20388;-59
2022/07/10 10:10:21;;;;;;;;;;;;;;;;;;4928874;28;20153;-60
2022/07/10 10:12:49;;;;;;;;;;;;;;;;;;4930183;28;20062;-60
2022/07/10 10:15:19;;;;;;;;;;;;;;;;;;4942630;28;19926;-61
2022/07/10 10:17:47;;;;;;;;;;;;;;;;;;4943266;28;19919;-60
2022/07/10 10:23:00;;;;;;;;;;;;;;;;;;4943123;28;20069;-62
2022/07/10 10:25:25;;;;;;;;;;;;;;;;;;4929282;28;19985;-62
2022/07/10 10:27:53;;;;;;;;;;;;;;;;;;4929371;28;19930;-64
2022/07/10 10:30:21;;;;;;;;;;;;;;;;;;4929786;28;19977;-63
2022/07/10 10:32:46;;;;;;;;;;;;;;;;;;4928789;28;19933;-62
2022/07/10 10:35:15;;;;;;;;;;;;;;;;;;4942437;28;19919;-61
2022/07/10 10:37:44;;;;;;;;;;;;;;;;;;4943249;28;19925;-63
2022/07/10 10:40:10;;;;;;;;;;;;;;;;;;4944175;28;19922;-63
2022/07/10 10:42:35;;;;;;;;;;;;;;;;;;4927633;28;19977;-65
2022/07/10 10:45:00;;;;;;;;;;;;;;;;;;4942842;28;19953;-61
2022/07/10 10:47:26;;;;;;;;;;;;;;;;;;4929288;28;19937;-60
2022/07/10 10:49:51;;;;;;;;;;;;;;;;;;4927522;28;19952;-60
2022/07/10 10:52:19;;;;;;;;;;;;;;;;;;4928328;28;20053;-61
2022/07/10 10:54:49;;;;;;;;;;;;;;;;;;4944278;28;19919;-60
2022/07/10 10:57:14;;;;;;;;;;;;;;;;;;4940840;28;20013;-60
2022/07/10 10:59:43;;;;;;;;;;;;;;;;;;4924465;28;19981;-60
2022/07/10 11:02:08;;;;;;;;;;;;;;;;;;4928668;28;19965;-61
2022/07/10 11:04:33;;;;;;;;;;;;;;;;;;4924856;28;19922;-59
2022/07/10 11:06:58;;;;;;;;;;;;;;;;;;4927896;28;19923;-61
2022/07/10 11:09:24;;;;;;;;;;;;;;;;;;4924012;28;19923;-62
2022/07/10 11:11:52;;;;;;;;;;;;;;;;;;4927535;28;19927;-61
2022/07/10 11:14:19;;;;;;;;;;;;;;;;;;4925384;28;19927;-62
2022/07/10 11:16:49;;;;;;;;;;;;;;;;;;4927611;28;20020;-66
2022/07/10 11:19:17;;;;;;;;;;;;;;;;;;4928126;28;19930;-61
2022/07/10 11:21:42;;;;;;;;;;;;;;;;;;4928609;28;20896;-61
2022/07/10 11:24:10;;;;;;;;;;;;;;;;;;4942272;28;19919;-61
2022/07/10 11:26:36;;;;;;;;;;;;;;;;;;4941216;28;20449;-61
2022/07/10 11:29:01;;;;;;;;;;;;;;;;;;4925596;28;19973;-63
2022/07/10 11:31:37;;;;;;;;;;;;;;;;;;4924483;28;19921;-62
2022/07/10 11:34:03;;;;;;;;;;;;;;;;;;4927532;28;19919;-62
2022/07/10 11:36:37;;;;;;;;;;;;;;;;;;4943040;28;20437;-64
2022/07/10 11:39:02;;;;;;;;;;;;;;;;;;4927119;28;19949;-63
2022/07/10 11:41:30;;;;;;;;;;;;;;;;;;4928247;28;20555;-66
2022/07/10 11:43:58;;;;;;;;;;;;;;;;;;4928747;28;19922;-64
2022/07/10 11:46:24;;;;;;;;;;;;;;;;;;4926760;28;19973;-64
2022/07/10 11:48:50;;;;;;;;;;;;;;;;;;4927526;28;19953;-64
2022/07/10 11:51:18;;;;;;;;;;;;;;;;;;4941908;28;19918;-62
2022/07/10 11:53:44;;;;;;;;;;;;;;;;;;4939386;28;20412;-64
2022/07/10 11:56:11;;;;;;;;;;;;;;;;;;4927877;28;20014;-63
2022/07/10 11:58:36;;;;;;;;;;;;;;;;;;4941221;28;19918;-62
2022/07/10 12:01:09;;;;;;;;;;;;;;;;;;4924639;28;19929;-64
2022/07/10 12:03:34;;;;;;;;;;;;;;;;;;4926309;28;19927;-65
2022/07/10 12:05:59;;;;;;;;;;;;;;;;;;4928005;28;19961;-64
2022/07/10 12:08:25;;;;;;;;;;;;;;;;;;4927398;28;19922;-64
2022/07/10 12:10:51;;;;;;;;;;;;;;;;;;4928186;28;19934;-64
2022/07/10 12:13:16;;;;;;;;;;;;;;;;;;4940417;28;21057;-66
2022/07/10 12:15:41;;;;;;;;;;;;;;;;;;4926420;28;20390;-63
2022/07/10 12:18:07;;;;;;;;;;;;;;;;;;4940380;28;19922;-64
2022/07/10 12:20:32;;;;;;;;;;;;;;;;;;4924600;28;19927;-65
2022/07/10 12:22:57;;;;;;;;;;;;;;;;;;4924817;28;19965;-64
2022/07/10 12:25:25;;;;;;;;;;;;;;;;;;4941360;28;21979;-65
2022/07/10 12:27:53;;;;;;;;;;;;;;;;;;4926556;28;19922;-63
2022/07/10 12:30:21;;;;;;;;;;;;;;;;;;4940893;28;19922;-64
2022/07/10 12:32:46;;;;;;;;;;;;;;;;;;4941138;28;19997;-66
2022/07/10 12:35:15;;;;;;;;;;;;;;;;;;4926519;28;19922;-67
2022/07/10 12:37:42;;;;;;;;;;;;;;;;;;4928671;28;20752;-60
2022/07/10 12:40:11;;;;;;;;;;;;;;;;;;4931128;28;19942;-64
2022/07/10 12:42:37;;;;;;;;;;;;;;;;;;4944464;28;19965;-64
2022/07/10 12:45:02;;;;;;;;;;;;;;;;;;4945376;28;20053;-65
2022/07/10 12:47:28;;;;;;;;;;;;;;;;;;4928475;28;19918;-65
2022/07/10 12:49:53;;;;;;;;;;;;;;;;;;4930241;28;21354;-64
2022/07/10 12:52:18;;;;;;;;;;;;;;;;;;4931966;28;19927;-62
2022/07/10 12:54:43;;;;;;;;;;;;;;;;;;4928747;28;19958;-60
2022/07/10 12:57:12;;;;;;;;;;;;;;;;;;4931767;28;19922;-60
2022/07/10 12:59:37;;;;;;;;;;;;;;;;;;4930308;28;20006;-59
2022/07/10 13:02:02;;;;;;;;;;;;;;;;;;4943845;28;20283;-59
2022/07/10 13:04:28;;;;;;;;;;;;;;;;;;4931628;28;19933;-61
2022/07/10 13:06:58;;;;;;;;;;;;;;;;;;4927693;28;19922;-62
2022/07/10 13:09:23;;;;;;;;;;;;;;;;;;4927182;28;20041;-65
2022/07/10 13:11:51;;;;;;;;;;;;;;;;;;4944768;28;19926;-67
2022/07/10 13:14:19;;;;;;;;;;;;;;;;;;4931334;28;19930;-63
2022/07/10 13:16:44;;;;;;;;;;;;;;;;;;4946901;28;19930;-62
2022/07/10 13:19:09;;;;;;;;;;;;;;;;;;4945166;28;20041;-63
2022/07/10 13:21:37;;;;;;;;;;;;;;;;;;4928842;28;19930;-63
2022/07/10 13:24:03;;;;;;;;;;;;;;;;;;4927656;28;19919;-62
2022/07/10 13:26:29;;;;;;;;;;;;;;;;;;4930550;28;19984;-63
2022/07/10 13:28:54;;;;;;;;;;;;;;;;;;4928024;28;20276;-62
2022/07/10 13:31:20;;;;;;;;;;;;;;;;;;4927067;28;19969;-62
2022/07/10 13:33:47;;;;;;;;;;;;;;;;;;4929716;28;19915;-62
2022/07/10 13:36:12;;;;;;;;;;;;;;;;;;4946062;28;19929;-62
2022/07/10 13:38:42;;;;;;;;;;;;;;;;;;4928325;28;19922;-62
2022/07/10 13:41:09;;;;;;;;;;;;;;;;;;4928754;28;20932;-61
2022/07/10 13:43:39;;;;;;;;;;;;;;;;;;4927874;28;20437;-61
2022/07/10 13:46:09;;;;;;;;;;;;;;;;;;4930763;28;19918;-61
2022/07/10 13:48:37;;;;;;;;;;;;;;;;;;4925904;28;19918;-63
2022/07/10 13:51:02;;;;;;;;;;;;;;;;;;4929605;28;20346;-61
2022/07/10 13:53:27;;;;;;;;;;;;;;;;;;4928832;28;19970;-62
2022/07/10 13:55:56;;;;;;;;;;;;;;;;;;4943021;28;19922;-62
2022/07/10 13:58:24;;;;;;;;;;;;;;;;;;4925484;28;19968;-60
2022/07/10 14:00:54;;;;;;;;;;;;;;;;;;4929200;28;19937;-62
2022/07/10 14:03:21;;;;;;;;;;;;;;;;;;4927996;28;19942;-61
2022/07/10 14:05:47;;;;;;;;;;;;;;;;;;4931454;28;19922;-61
2022/07/10 14:08:12;;;;;;;;;;;;;;;;;;4944304;28;20561;-62
2022/07/10 14:10:44;;;;;;;;;;;;;;;;;;4940929;28;20064;-61
2022/07/10 14:13:10;;;;;;;;;;;;;;;;;;4930540;28;19976;-60
2022/07/10 14:15:35;;;;;;;;;;;;;;;;;;4928598;28;20053;-60
2022/07/10 14:18:04;;;;;;;;;;;;;;;;;;4929752;28;20532;-61
2022/07/10 14:21:02;;;;;;;;;;;;;;;;;;4942873;28;19918;-62
2022/07/10 14:23:14;;;;;;;;;;;;;;;;;;4929977;28;19919;-62
2022/07/10 14:25:42;;;;;;;;;;;;;;;;;;4927750;28;19934;-63
2022/07/10 14:28:13;;;;;;;;;;;;;;;;;;4927775;28;20468;-63
2022/07/10 14:30:39;;;;;;;;;;;;;;;;;;4942421;28;19918;-64
2022/07/10 14:33:04;;;;;;;;;;;;;;;;;;4942224;28;19971;-63
2022/07/10 14:35:29;;;;;;;;;;;;;;;;;;4943017;28;19933;-64
2022/07/10 14:37:54;;;;;;;;;;;;;;;;;;4943684;28;20350;-64
2022/07/10 14:40:20;;;;;;;;;;;;;;;;;;4928345;28;19922;-64
2022/07/10 14:42:45;;;;;;;;;;;;;;;;;;4940164;28;19927;-65
2022/07/10 14:45:11;;;;;;;;;;;;;;;;;;4928930;28;20385;-65
2022/07/10 14:47:36;;;;;;;;;;;;;;;;;;4943809;28;20394;-64
2022/07/10 14:50:02;;;;;;;;;;;;;;;;;;4942864;28;20414;-66
2022/07/10 14:52:31;;;;;;;;;;;;;;;;;;4928503;28;20583;-65
2022/07/10 14:54:57;;;;;;;;;;;;;;;;;;4927183;28;19918;-65
2022/07/10 14:57:22;;;;;;;;;;;;;;;;;;4942207;28;19929;-66
2022/07/10 14:59:48;;;;;;;;;;;;;;;;;;4941770;28;19918;-66
2022/07/10 15:02:13;;;;;;;;;;;;;;;;;;4927929;28;20993;-66
2022/07/10 15:04:41;;;;;;;;;;;;;;;;;;4941687;28;19937;-66
2022/07/10 15:07:06;;;;;;;;;;;;;;;;;;4923741;28;19918;-66
2022/07/10 15:09:32;;;;;;;;;;;;;;;;;;4925512;28;20026;-65
2022/07/10 15:11:58;;;;;;;;;;;;;;;;;;4927484;28;19965;-66
2022/07/10 15:14:24;;;;;;;;;;;;;;;;;;4924901;28;20013;-67
2022/07/10 15:17:05;;;;;;;;;;;;;;;;;;4929085;28;19922;-66
2022/07/10 15:19:46;;;;;;;;;;;;;;;;;;4942270;28;20366;-66
2022/07/10 15:22:12;;;;;;;;;;;;;;;;;;4929238;28;19941;-67
2022/07/10 15:24:39;;;;;;;;;;;;;;;;;;4925692;28;20001;-67
2022/07/10 15:27:04;;;;;;;;;;;;;;;;;;4926537;28;19922;-67
2022/07/10 15:29:30;;;;;;;;;;;;;;;;;;4927152;28;19973;-67
2022/07/10 15:31:55;;;;;;;;;;;;;;;;;;4927549;28;19922;-66
2022/07/10 15:34:21;;;;;;;;;;;;;;;;;;4941630;28;19923;-67
2022/07/10 15:36:49;;;;;;;;;;;;;;;;;;4927623;28;19945;-68
2022/07/10 15:39:14;;;;;;;;;;;;;;;;;;4942759;28;19929;-67
2022/07/10 15:41:44;;;;;;;;;;;;;;;;;;4942460;28;20444;-67
2022/07/10 15:47:25;;;;;;;;;;;;;;;;;;4926373;28;19930;-67
2022/07/10 15:49:51;;;;;;;;;;;;;;;;;;4925230;28;19965;-66
2022/07/10 15:52:17;;;;;;;;;;;;;;;;;;4928727;28;20006;-67
2022/07/10 15:54:44;;;;;;;;;;;;;;;;;;4928137;28;20021;-66
2022/07/10 15:57:11;;;;;;;;;;;;;;;;;;4941385;28;20544;-66
2022/07/10 15:59:55;;;;;;;;;;;;;;;;;;4924155;28;19956;-66
2022/07/10 16:02:21;;;;;;;;;;;;;;;;;;4924919;28;19981;-65
2022/07/10 16:04:47;;;;;;;;;;;;;;;;;;4924069;28;20009;-67
2022/07/10 16:07:13;;;;;;;;;;;;;;;;;;4942445;28;19923;-67
2022/07/10 16:09:38;;;;;;;;;;;;;;;;;;4927198;28;19918;-67
2022/07/10 16:12:03;;;;;;;;;;;;;;;;;;4942045;28;19923;-67
2022/07/10 16:14:29;;;;;;;;;;;;;;;;;;4944293;28;20330;-67
2022/07/10 16:16:55;;;;;;;;;;;;;;;;;;4930194;28;19922;-68
2022/07/10 16:19:21;;;;;;;;;;;;;;;;;;4942679;28;19930;-68
2022/07/10 16:21:47;;;;;;;;;;;;;;;;;;4928057;28;19931;-68
2022/07/10 16:24:12;;;;;;;;;;;;;;;;;;4925903;28;20554;-66
2022/07/10 16:26:37;;;;;;;;;;;;;;;;;;4944054;28;19966;-67
2022/07/10 16:29:03;;;;;;;;;;;;;;;;;;4943306;28;19973;-65
2022/07/10 16:31:28;;;;;;;;;;;;;;;;;;4943769;28;19922;-66
2022/07/10 16:33:53;;;;;;;;;;;;;;;;;;4926056;28;20010;-67
2022/07/10 16:36:19;;;;;;;;;;;;;;;;;;4943383;28;19923;-67
2022/07/10 16:38:44;;;;;;;;;;;;;;;;;;4925909;28;20490;-67
2022/07/10 16:41:11;;;;;;;;;;;;;;;;;;4930860;28;19992;-66
2022/07/10 16:43:36;;;;;;;;;;;;;;;;;;4943585;28;19923;-68
2022/07/10 16:46:02;;;;;;;;;;;;;;;;;;4930110;28;19930;-67
2022/07/10 16:48:29;;;;;;;;;;;;;;;;;;4924998;28;19919;-68
2022/07/10 16:50:58;;;;;;;;;;;;;;;;;;4928887;28;20994;-68
2022/07/10 16:53:25;;;;;;;;;;;;;;;;;;4927336;28;19923;-67
2022/07/10 16:55:51;;;;;;;;;;;;;;;;;;4944642;28;19923;-68
2022/07/10 16:58:16;;;;;;;;;;;;;;;;;;4927816;28;20126;-67
2022/07/10 17:00:42;;;;;;;;;;;;;;;;;;4929678;28;20202;-68
2022/07/10 17:03:07;;;;;;;;;;;;;;;;;;4863342;28;1881788;-67